Time;durP1;ratioP1;P1;durP2;ratioP2;P2;SDS_P1;SDS_P2;PMS_P1;PMS_P2;Temp;Humidity;BMP_temperature;BMP_pressure;BME280_temperature;BME280_humidity;BME280_pressure;Samples;Min_cycle;Max_cycle;Signal;HPM_P1;HPM_P2
2023/02/03 00:01:46;;;;;;;0.30;0.30;;;4.80;99.90;;;;;;5075970;28;20456;-77
2023/02/03 00:04:14;;;;;;;0.30;0.27;;;4.80;99.90;;;;;;5075933;28;20453;-77
2023/02/03 00:06:41;;;;;;;0.30;0.20;;;4.80;99.90;;;;;;5075855;28;20914;-77
2023/02/03 00:09:08;;;;;;;0.40;0.40;;;4.80;99.90;;;;;;5075270;28;20487;-77
2023/02/03 00:11:35;;;;;;;0.30;0.20;;;4.70;99.90;;;;;;5075795;28;20449;-77
2023/02/03 00:14:04;;;;;;;0.30;0.20;;;4.70;99.90;;;;;;5075480;28;20964;-77
2023/02/03 00:16:30;;;;;;;0.87;0.60;;;4.70;99.90;;;;;;5075653;28;20503;-77
2023/02/03 00:18:57;;;;;;;0.30;0.30;;;4.70;99.90;;;;;;5076076;28;20915;-77
2023/02/03 00:21:25;;;;;;;0.40;0.40;;;4.70;99.90;;;;;;5075635;28;20453;-74
2023/02/03 00:23:53;;;;;;;0.30;0.30;;;4.70;99.90;;;;;;5075634;28;20457;-77
2023/02/03 00:26:20;;;;;;;0.30;0.20;;;4.70;99.90;;;;;;5075473;28;20469;-77
2023/02/03 00:28:47;;;;;;;0.30;0.30;;;4.70;99.90;;;;;;5075131;28;20484;-77
2023/02/03 00:31:16;;;;;;;0.30;0.30;;;4.70;99.90;;;;;;5075497;28;20469;-77
2023/02/03 00:33:43;;;;;;;0.40;0.30;;;4.60;99.90;;;;;;5075432;28;20503;-77
2023/02/03 00:36:11;;;;;;;0.40;0.40;;;4.70;99.90;;;;;;5074855;28;20492;-75
2023/02/03 00:38:39;;;;;;;0.30;0.20;;;4.70;99.90;;;;;;5075305;28;20449;-75
2023/02/03 00:41:06;;;;;;;0.57;0.57;;;4.70;99.90;;;;;;5075276;28;20453;-77
2023/02/03 00:43:33;;;;;;;0.30;0.20;;;4.70;99.90;;;;;;5074938;28;20446;-77
2023/02/03 00:46:00;;;;;;;0.30;0.23;;;4.70;99.90;;;;;;5075126;28;20477;-77
2023/02/03 00:48:27;;;;;;;0.33;0.30;;;4.70;99.90;;;;;;5075029;28;20493;-77
2023/02/03 00:50:53;;;;;;;0.30;0.20;;;4.70;99.90;;;;;;5075108;28;20450;-77
2023/02/03 00:53:20;;;;;;;0.30;0.30;;;4.70;99.90;;;;;;5075018;28;20445;-77
2023/02/03 00:55:48;;;;;;;0.30;0.20;;;4.70;99.90;;;;;;5074916;28;20477;-75
2023/02/03 00:58:15;;;;;;;0.30;0.20;;;4.70;99.90;;;;;;5074927;28;20446;-76
2023/02/03 01:00:42;;;;;;;0.30;0.30;;;4.70;99.90;;;;;;5074982;28;20473;-75
2023/02/03 01:03:09;;;;;;;0.30;0.30;;;4.70;99.90;;;;;;5074666;28;20816;-76
2023/02/03 01:05:36;;;;;;;0.30;0.30;;;4.70;99.90;;;;;;5074371;28;20996;-76
2023/02/03 01:08:03;;;;;;;0.30;0.20;;;4.80;99.90;;;;;;5074643;28;20489;-76
2023/02/03 01:10:30;;;;;;;0.40;0.30;;;4.80;99.90;;;;;;5074631;28;20454;-76
2023/02/03 01:12:58;;;;;;;0.30;0.20;;;4.70;99.90;;;;;;5074601;28;20456;-75
2023/02/03 01:15:25;;;;;;;0.30;0.30;;;4.70;99.90;;;;;;5074466;28;20483;-76
2023/02/03 01:17:52;;;;;;;0.30;0.20;;;4.80;99.90;;;;;;5074503;28;20464;-75
2023/02/03 01:20:20;;;;;;;0.40;0.30;;;4.70;99.90;;;;;;5073611;28;20450;-76
2023/02/03 01:22:47;;;;;;;0.40;0.30;;;4.70;99.90;;;;;;5074382;28;20457;-75
2023/02/03 01:25:13;;;;;;;2.50;0.57;;;4.70;99.90;;;;;;5074310;28;20453;-76
2023/02/03 01:27:40;;;;;;;0.30;0.30;;;4.70;99.90;;;;;;5074276;28;20453;-75
2023/02/03 01:30:10;;;;;;;0.30;0.30;;;4.70;99.90;;;;;;5073907;28;20988;-75
2023/02/03 01:32:36;;;;;;;0.30;0.20;;;4.70;99.90;;;;;;5074197;28;20472;-76
2023/02/03 01:35:03;;;;;;;0.30;0.30;;;4.70;99.90;;;;;;5073711;28;20477;-84
2023/02/03 01:37:30;;;;;;;0.30;0.30;;;4.70;99.90;;;;;;5074078;28;20468;-84
2023/02/03 01:39:57;;;;;;;0.30;0.20;;;4.70;99.90;;;;;;5074145;28;20509;-84
2023/02/03 01:42:24;;;;;;;0.30;0.20;;;4.80;99.90;;;;;;5074098;28;20453;-84
2023/02/03 01:44:51;;;;;;;0.30;0.30;;;4.80;99.90;;;;;;5074187;28;20445;-84
2023/02/03 01:47:24;;;;;;;0.30;0.30;;;4.80;99.90;;;;;;5074012;28;20472;-84
2023/02/03 01:50:05;;;;;;;0.97;0.30;;;4.80;99.90;;;;;;5073975;28;20473;-84
2023/02/03 01:52:32;;;;;;;0.30;0.20;;;4.80;99.90;;;;;;5074041;28;20426;-84
2023/02/03 01:55:02;;;;;;;0.30;0.20;;;4.80;99.90;;;;;;5073956;28;20430;-84
2023/02/03 01:57:34;;;;;;;0.47;0.30;;;4.80;99.90;;;;;;5074155;28;20488;-84
2023/02/03 02:00:02;;;;;;;0.30;0.30;;;4.90;99.90;;;;;;5073948;28;20434;-84
2023/02/03 02:02:32;;;;;;;0.30;0.27;;;4.80;99.90;;;;;;5073603;28;20940;-84
2023/02/03 02:05:06;;;;;;;0.50;0.30;;;4.90;99.90;;;;;;5074912;28;20449;-84
2023/02/03 02:07:35;;;;;;;0.30;0.30;;;4.80;99.90;;;;;;5073775;28;20433;-85
2023/02/03 02:10:03;;;;;;;0.30;0.30;;;4.80;99.90;;;;;;5073661;28;20488;-85
2023/02/03 02:12:29;;;;;;;0.30;0.30;;;4.90;99.90;;;;;;5073843;28;20438;-84
2023/02/03 02:14:57;;;;;;;0.40;0.30;;;4.80;99.90;;;;;;5073641;28;20826;-85
2023/02/03 02:17:49;;;;;;;0.40;0.40;;;4.80;99.90;;;;;;5073241;28;20461;-86
2023/02/03 02:20:38;;;;;;;0.30;0.20;;;4.80;99.90;;;;;;5063173;28;20468;-85
2023/02/03 02:23:34;;;;;;;0.30;0.20;;;4.80;99.90;;;;;;5073659;28;20434;-85
2023/02/03 02:26:34;;;;;;;0.30;0.30;;;4.80;99.90;;;;;;5073532;28;20480;-85
2023/02/03 02:29:28;;;;;;;0.30;0.20;;;4.80;99.90;;;;;;5039948;28;20870;-85
2023/02/03 02:32:09;;;;;;;0.60;0.30;;;4.70;99.90;;;;;;5073032;28;20440;-85
2023/02/03 02:34:48;;;;;;;0.30;0.30;;;4.80;99.90;;;;;;5072846;28;20440;-84
2023/02/03 02:37:25;;;;;;;0.30;0.20;;;4.80;99.90;;;;;;5073386;28;20849;-85
2023/02/03 02:39:57;;;;;;;0.30;0.20;;;4.80;99.90;;;;;;5073393;28;20430;-85
2023/02/03 02:42:32;;;;;;;0.30;0.30;;;4.80;99.90;;;;;;5073324;28;20434;-85
2023/02/03 02:45:06;;;;;;;0.30;0.30;;;4.70;99.90;;;;;;5073272;28;20437;-85
2023/02/03 02:47:34;;;;;;;0.30;0.30;;;4.80;99.90;;;;;;5072985;28;20440;-85
2023/02/03 02:50:06;;;;;;;0.30;0.20;;;4.80;99.90;;;;;;5072863;28;20482;-85
2023/02/03 02:52:38;;;;;;;0.40;0.40;;;4.70;99.90;;;;;;5073220;28;20437;-85
2023/02/03 02:55:10;;;;;;;0.40;0.30;;;4.60;99.90;;;;;;5073237;28;20441;-85
2023/02/03 02:57:39;;;;;;;0.30;0.30;;;4.70;99.90;;;;;;5073316;28;20441;-86
2023/02/03 03:00:07;;;;;;;0.30;0.30;;;4.80;99.90;;;;;;5072827;28;20812;-86
2023/02/03 03:02:37;;;;;;;0.30;0.20;;;4.80;99.90;;;;;;5073172;28;20449;-85
2023/02/03 03:05:05;;;;;;;0.30;0.20;;;4.90;99.90;;;;;;5073188;28;20818;-85
2023/02/03 03:07:36;;;;;;;0.30;0.30;;;4.80;99.90;;;;;;5072720;28;20449;-85
2023/02/03 03:10:07;;;;;;;0.30;0.20;;;4.90;99.90;;;;;;5072975;28;20495;-85
2023/02/03 03:12:37;;;;;;;0.30;0.20;;;4.90;99.90;;;;;;5072784;28;20430;-85
2023/02/03 03:15:07;;;;;;;0.30;0.20;;;5.00;99.90;;;;;;5073308;28;20857;-85
2023/02/03 03:17:39;;;;;;;0.40;0.40;;;5.00;99.90;;;;;;5072989;28;20524;-85
2023/02/03 03:20:10;;;;;;;0.30;0.30;;;4.90;99.90;;;;;;5073039;28;20425;-85
2023/02/03 03:22:47;;;;;;;0.30;0.20;;;5.00;99.90;;;;;;5073036;28;20434;-85
2023/02/03 03:25:18;;;;;;;0.30;0.20;;;5.00;99.90;;;;;;5072930;28;20444;-85
2023/02/03 03:27:49;;;;;;;0.30;0.20;;;4.90;99.90;;;;;;5072985;28;20427;-85
2023/02/03 03:30:20;;;;;;;0.30;0.20;;;4.90;99.90;;;;;;5072545;28;20505;-85
2023/02/03 03:32:48;;;;;;;0.30;0.20;;;4.80;99.90;;;;;;5073120;28;20449;-85
2023/02/03 03:35:16;;;;;;;0.30;0.20;;;4.80;99.90;;;;;;5072467;28;20485;-85
2023/02/03 03:37:47;;;;;;;0.30;0.20;;;4.80;99.90;;;;;;5072523;28;20944;-85
2023/02/03 03:40:20;;;;;;;0.30;0.20;;;4.70;99.90;;;;;;5072803;28;20805;-85
2023/02/03 03:42:50;;;;;;;0.30;0.30;;;4.70;99.90;;;;;;5073503;28;20452;-85
2023/02/03 03:45:23;;;;;;;0.30;0.30;;;4.80;99.90;;;;;;5076345;28;20460;-85
2023/02/03 03:47:57;;;;;;;0.30;0.30;;;4.80;99.90;;;;;;5076359;28;20447;-85
2023/02/03 03:50:28;;;;;;;0.30;0.30;;;4.80;99.90;;;;;;5076183;28;20472;-85
2023/02/03 03:52:57;;;;;;;0.30;0.20;;;4.90;99.90;;;;;;5076282;28;20426;-85
2023/02/03 03:55:26;;;;;;;0.30;0.20;;;4.90;99.90;;;;;;5076090;28;20441;-85
2023/02/03 03:57:58;;;;;;;0.30;0.20;;;4.90;99.90;;;;;;5075988;28;20454;-85
2023/02/03 04:00:27;;;;;;;0.30;0.20;;;4.90;99.90;;;;;;5076186;28;20437;-85
2023/02/03 04:02:58;;;;;;;0.30;0.20;;;5.00;99.90;;;;;;5076058;28;20798;-85
2023/02/03 04:05:25;;;;;;;0.30;0.30;;;4.90;99.90;;;;;;5075963;28;20795;-85
2023/02/03 04:07:52;;;;;;;0.30;0.30;;;4.90;99.90;;;;;;5075999;28;20445;-85
2023/02/03 04:10:25;;;;;;;0.30;0.30;;;4.90;99.90;;;;;;5075564;28;20484;-85
2023/02/03 04:12:52;;;;;;;0.87;0.40;;;4.80;99.90;;;;;;5075923;28;20441;-85
2023/02/03 04:15:19;;;;;;;0.30;0.20;;;4.90;99.90;;;;;;5075811;28;20449;-85
2023/02/03 04:17:46;;;;;;;0.30;0.20;;;4.80;99.90;;;;;;5075761;28;20442;-86
2023/02/03 04:20:15;;;;;;;0.30;0.30;;;4.80;99.90;;;;;;5075763;28;20445;-85
2023/02/03 04:22:42;;;;;;;0.30;0.30;;;4.80;99.90;;;;;;5075644;28;20822;-85
2023/02/03 04:25:09;;;;;;;0.30;0.30;;;4.70;99.90;;;;;;5076494;28;20433;-85
2023/02/03 04:27:36;;;;;;;0.30;0.20;;;4.70;99.90;;;;;;5075567;28;20449;-86
2023/02/03 04:30:04;;;;;;;0.30;0.20;;;4.70;99.90;;;;;;5075579;28;20481;-85
2023/02/03 04:32:31;;;;;;;0.30;0.20;;;4.70;99.90;;;;;;5075597;28;20949;-85
2023/02/03 04:34:58;;;;;;;0.30;0.20;;;4.70;99.90;;;;;;5075259;28;20481;-85
2023/02/03 04:37:26;;;;;;;0.30;0.30;;;4.70;99.90;;;;;;5075375;28;20469;-85
2023/02/03 04:39:54;;;;;;;0.30;0.30;;;4.70;99.90;;;;;;5075315;28;20441;-84
2023/02/03 04:42:21;;;;;;;0.30;0.20;;;4.60;99.90;;;;;;5075573;28;20534;-85
2023/02/03 04:44:48;;;;;;;0.30;0.20;;;4.70;99.90;;;;;;5075305;28;20816;-85
2023/02/03 04:47:15;;;;;;;0.30;0.30;;;4.70;99.90;;;;;;5075149;28;20473;-85
2023/02/03 04:49:42;;;;;;;1.23;0.40;;;4.70;99.90;;;;;;5075044;28;20496;-85
2023/02/03 04:52:08;;;;;;;0.30;0.20;;;4.70;99.90;;;;;;5075073;28;20453;-85
2023/02/03 04:54:37;;;;;;;0.30;0.20;;;4.70;99.90;;;;;;5075004;28;20453;-83
2023/02/03 04:57:03;;;;;;;0.30;0.27;;;4.60;99.90;;;;;;5074723;28;20815;-84
2023/02/03 04:59:30;;;;;;;0.30;0.20;;;4.70;99.90;;;;;;5074947;28;20445;-85
2023/02/03 05:01:58;;;;;;;0.40;0.40;;;4.70;99.90;;;;;;5074912;28;20449;-85
2023/02/03 05:04:25;;;;;;;0.30;0.30;;;4.70;99.90;;;;;;5074582;28;20953;-85
2023/02/03 05:06:51;;;;;;;0.30;0.20;;;4.70;99.90;;;;;;5074756;28;20473;-84
2023/02/03 05:09:18;;;;;;;0.30;0.30;;;4.60;99.90;;;;;;5074634;28;20496;-85
2023/02/03 05:11:46;;;;;;;0.30;0.30;;;4.60;99.90;;;;;;5074421;28;20941;-85
2023/02/03 05:14:13;;;;;;;0.30;0.23;;;4.60;99.90;;;;;;5074644;28;20461;-84
2023/02/03 05:16:39;;;;;;;0.30;0.30;;;4.60;99.90;;;;;;5074243;28;21087;-84
2023/02/03 05:19:07;;;;;;;0.33;0.27;;;4.70;99.90;;;;;;5074525;28;20450;-84
2023/02/03 05:21:34;;;;;;;0.30;0.30;;;4.70;99.90;;;;;;5074441;28;20476;-82
2023/02/03 05:24:02;;;;;;;0.30;0.20;;;4.60;99.90;;;;;;5074477;28;20441;-83
2023/02/03 05:26:29;;;;;;;0.30;0.30;;;4.60;99.90;;;;;;5074296;28;20844;-83
2023/02/03 05:28:57;;;;;;;0.30;0.30;;;4.60;99.90;;;;;;5074329;28;20445;-83
2023/02/03 05:31:24;;;;;;;0.30;0.20;;;4.60;99.90;;;;;;5074203;28;20489;-83
2023/02/03 05:33:51;;;;;;;0.30;0.20;;;4.60;99.90;;;;;;5074242;28;20449;-83
2023/02/03 05:36:17;;;;;;;0.33;0.33;;;4.60;99.90;;;;;;5073624;28;20489;-83
2023/02/03 05:38:44;;;;;;;0.40;0.30;;;4.60;99.90;;;;;;5074163;28;20472;-83
2023/02/03 05:43:57;;;;;;;0.30;0.30;;;4.60;99.90;;;;;;5073968;28;20445;-83
2023/02/03 05:46:24;;;;;;;0.30;0.30;;;4.60;99.90;;;;;;5073965;28;20461;-83
2023/02/03 05:48:51;;;;;;;0.30;0.20;;;4.60;99.90;;;;;;5073985;28;20505;-83
2023/02/03 05:51:17;;;;;;;0.30;0.30;;;4.60;99.90;;;;;;5073827;28;20484;-83
2023/02/03 05:53:44;;;;;;;0.30;0.20;;;4.60;99.90;;;;;;5073620;28;20441;-83
2023/02/03 05:56:11;;;;;;;0.30;0.30;;;4.60;99.90;;;;;;5073781;28;20476;-83
2023/02/03 05:58:38;;;;;;;0.30;0.20;;;4.60;99.90;;;;;;5073870;28;20445;-83
2023/02/03 06:01:06;;;;;;;0.30;0.20;;;4.60;99.90;;;;;;5073808;28;20450;-83
2023/02/03 06:03:32;;;;;;;0.50;0.30;;;4.60;99.90;;;;;;5073471;28;20437;-83
2023/02/03 06:05:59;;;;;;;0.30;0.30;;;4.60;99.90;;;;;;5073246;28;20469;-83
2023/02/03 06:08:27;;;;;;;0.30;0.20;;;4.60;99.90;;;;;;5073663;28;20457;-83
2023/02/03 06:10:58;;;;;;;0.67;0.33;;;4.60;99.90;;;;;;5073570;28;20894;-83
2023/02/03 06:13:25;;;;;;;0.30;0.30;;;4.60;99.90;;;;;;5073602;28;20477;-82
2023/02/03 06:15:51;;;;;;;0.30;0.20;;;4.60;99.90;;;;;;5073522;28;20473;-83
2023/02/03 06:18:20;;;;;;;0.30;0.30;;;4.60;99.90;;;;;;5073531;28;20452;-83
2023/02/03 06:20:46;;;;;;;0.50;0.30;;;4.50;99.90;;;;;;5073216;28;20960;-83
2023/02/03 06:23:15;;;;;;;0.30;0.30;;;4.60;99.90;;;;;;5073928;28;20433;-83
2023/02/03 06:25:42;;;;;;;0.30;0.20;;;4.60;99.90;;;;;;5073137;28;20483;-83
2023/02/03 06:28:09;;;;;;;0.40;0.40;;;4.60;99.90;;;;;;5073457;28;20441;-83
2023/02/03 06:30:36;;;;;;;0.30;0.30;;;4.60;99.90;;;;;;5073938;28;20886;-83
2023/02/03 06:33:02;;;;;;;0.30;0.20;;;4.60;99.90;;;;;;5073378;28;20448;-83
2023/02/03 06:35:31;;;;;;;0.40;0.30;;;4.60;99.90;;;;;;5072939;28;20485;-84
2023/02/03 06:37:58;;;;;;;0.30;0.20;;;4.60;99.90;;;;;;5073357;28;20450;-84
2023/02/03 06:40:24;;;;;;;0.30;0.20;;;4.60;99.90;;;;;;5073356;28;20442;-83
2023/02/03 06:42:51;;;;;;;0.30;0.20;;;4.60;99.90;;;;;;5073304;28;20459;-83
2023/02/03 06:45:18;;;;;;;0.30;0.20;;;4.60;99.90;;;;;;5073244;28;20445;-83
2023/02/03 06:47:45;;;;;;;0.30;0.30;;;4.60;99.90;;;;;;5073563;28;20433;-83
2023/02/03 06:50:15;;;;;;;0.30;0.30;;;4.60;99.90;;;;;;5072849;28;20484;-83
2023/02/03 06:52:43;;;;;;;0.30;0.30;;;4.60;99.90;;;;;;5073242;28;20825;-83
2023/02/03 06:55:10;;;;;;;0.40;0.40;;;4.70;99.90;;;;;;5073137;28;20458;-83
2023/02/03 06:57:43;;;;;;;0.30;0.20;;;4.70;99.90;;;;;;5073132;28;20816;-83
2023/02/03 07:00:12;;;;;;;0.30;0.20;;;4.60;99.90;;;;;;5072882;28;20428;-83
2023/02/03 07:02:39;;;;;;;0.30;0.20;;;4.60;99.90;;;;;;5073093;28;20449;-83
2023/02/03 07:05:06;;;;;;;0.30;0.20;;;4.60;99.90;;;;;;5072823;28;20934;-83
2023/02/03 07:07:33;;;;;;;0.30;0.30;;;4.50;99.90;;;;;;5072751;28;20449;-83
2023/02/03 07:10:01;;;;;;;0.30;0.23;;;4.50;99.90;;;;;;5073004;28;20548;-83
2023/02/03 07:12:28;;;;;;;0.30;0.20;;;4.50;99.90;;;;;;5073003;28;20456;-83
2023/02/03 07:14:55;;;;;;;0.70;0.40;;;4.50;99.90;;;;;;5072814;28;20798;-83
2023/02/03 07:17:22;;;;;;;0.30;0.30;;;4.40;99.90;;;;;;5072941;28;20477;-83
2023/02/03 07:19:49;;;;;;;0.30;0.20;;;4.50;99.90;;;;;;5076821;28;20433;-84
2023/02/03 07:22:15;;;;;;;0.30;0.30;;;4.40;99.90;;;;;;5076904;28;20429;-84
2023/02/03 07:24:42;;;;;;;3.90;0.50;;;4.30;99.90;;;;;;5076820;28;20780;-83
2023/02/03 07:27:10;;;;;;;0.30;0.30;;;4.30;99.90;;;;;;5077673;28;20471;-83
2023/02/03 07:29:37;;;;;;;0.97;0.67;;;4.40;99.90;;;;;;5076743;28;20445;-83
2023/02/03 07:32:04;;;;;;;0.30;0.27;;;4.40;99.90;;;;;;5076970;28;20478;-83
2023/02/03 07:34:31;;;;;;;0.30;0.30;;;4.30;99.90;;;;;;5076469;28;20472;-82
2023/02/03 07:36:57;;;;;;;0.30;0.30;;;4.30;99.90;;;;;;5076527;28;20470;-83
2023/02/03 07:39:24;;;;;;;0.50;0.50;;;4.30;99.90;;;;;;5076450;28;20477;-83
2023/02/03 07:41:51;;;;;;;0.87;0.30;;;4.30;99.90;;;;;;5076777;28;20445;-84
2023/02/03 07:44:19;;;;;;;0.40;0.30;;;4.30;99.90;;;;;;5076652;28;20447;-84
2023/02/03 07:46:46;;;;;;;0.53;0.30;;;4.30;99.90;;;;;;5076590;28;20473;-84
2023/02/03 07:49:13;;;;;;;0.30;0.30;;;4.40;99.90;;;;;;5076408;28;20975;-84
2023/02/03 07:51:40;;;;;;;0.30;0.30;;;4.30;99.90;;;;;;5075939;28;20481;-83
2023/02/03 07:54:07;;;;;;;0.50;0.37;;;4.40;99.90;;;;;;5076362;28;20449;-84
2023/02/03 07:56:34;;;;;;;0.40;0.30;;;4.40;99.90;;;;;;5076200;28;20536;-84
2023/02/03 07:59:00;;;;;;;0.30;0.30;;;4.50;99.90;;;;;;5076264;28;20441;-83
2023/02/03 08:01:30;;;;;;;0.30;0.30;;;4.50;99.90;;;;;;5076137;28;20441;-84
2023/02/03 08:03:56;;;;;;;0.30;0.30;;;4.40;99.90;;;;;;5075831;28;20933;-84
2023/02/03 08:06:23;;;;;;;0.40;0.30;;;4.40;99.90;;;;;;5075983;28;20472;-83
2023/02/03 08:08:50;;;;;;;0.40;0.30;;;4.40;99.90;;;;;;5076082;28;20457;-83
2023/02/03 08:11:17;;;;;;;0.30;0.30;;;4.50;99.90;;;;;;5075703;28;20992;-84
2023/02/03 08:13:43;;;;;;;0.30;0.20;;;4.40;99.90;;;;;;5076066;28;20453;-84
2023/02/03 08:16:10;;;;;;;0.30;0.20;;;4.40;99.90;;;;;;5075812;28;20968;-84
2023/02/03 08:18:38;;;;;;;0.30;0.20;;;4.50;99.90;;;;;;5075859;28;20462;-83
2023/02/03 08:21:05;;;;;;;0.30;0.30;;;4.40;99.90;;;;;;5075557;28;20449;-84
2023/02/03 08:23:32;;;;;;;0.30;0.20;;;4.40;99.90;;;;;;5075530;28;20941;-84
2023/02/03 08:25:59;;;;;;;0.30;0.20;;;4.40;99.90;;;;;;5075798;28;20469;-84
2023/02/03 08:28:25;;;;;;;1.23;0.50;;;4.40;99.90;;;;;;5075302;28;20450;-84
2023/02/03 08:30:52;;;;;;;0.40;0.30;;;4.40;99.90;;;;;;5075236;28;20530;-84
2023/02/03 08:33:19;;;;;;;0.30;0.20;;;4.40;99.90;;;;;;5075596;28;20446;-84
2023/02/03 08:35:49;;;;;;;0.40;0.40;;;4.40;99.90;;;;;;5075131;28;20486;-84
2023/02/03 08:38:16;;;;;;;0.40;0.30;;;4.50;99.90;;;;;;5075698;28;20430;-84
2023/02/03 08:40:43;;;;;;;0.30;0.30;;;4.40;99.90;;;;;;5075815;28;20442;-84
2023/02/03 08:43:10;;;;;;;0.30;0.30;;;4.50;99.90;;;;;;5075182;28;20430;-84
2023/02/03 08:45:36;;;;;;;0.30;0.30;;;4.50;99.90;;;;;;5075482;28;20470;-83
2023/02/03 08:48:03;;;;;;;0.30;0.20;;;4.60;99.90;;;;;;5075526;28;20446;-84
2023/02/03 08:50:30;;;;;;;0.30;0.20;;;4.60;99.90;;;;;;5074926;28;21015;-83
2023/02/03 08:52:58;;;;;;;0.30;0.20;;;4.60;99.90;;;;;;5075430;28;20452;-84
2023/02/03 08:55:25;;;;;;;0.40;0.40;;;4.70;99.90;;;;;;5075265;28;20960;-84
2023/02/03 08:57:51;;;;;;;0.70;0.50;;;4.70;99.90;;;;;;5075195;28;20442;-84
2023/02/03 09:00:19;;;;;;;0.30;0.30;;;4.80;99.90;;;;;;5075094;28;20445;-83
2023/02/03 09:02:46;;;;;;;0.30;0.30;;;4.90;99.90;;;;;;5075001;28;20458;-84
2023/02/03 09:05:13;;;;;;;0.30;0.30;;;4.90;99.90;;;;;;5074969;28;20471;-84
2023/02/03 09:07:39;;;;;;;0.30;0.30;;;4.80;99.90;;;;;;5074981;28;20445;-84
2023/02/03 09:10:08;;;;;;;0.30;0.30;;;4.90;99.90;;;;;;5074846;28;20449;-83
2023/02/03 09:12:35;;;;;;;0.40;0.30;;;4.90;99.90;;;;;;5074994;28;20484;-83
2023/02/03 09:15:01;;;;;;;0.73;0.47;;;4.90;99.90;;;;;;5074658;28;20446;-83
2023/02/03 09:17:28;;;;;;;0.30;0.30;;;5.10;99.90;;;;;;5074260;28;20457;-83
2023/02/03 09:19:55;;;;;;;0.30;0.20;;;5.20;99.90;;;;;;5074912;28;20441;-83
2023/02/03 09:22:21;;;;;;;0.30;0.30;;;5.30;99.90;;;;;;5074210;28;20450;-84
2023/02/03 09:24:50;;;;;;;0.80;0.30;;;5.30;99.90;;;;;;5074454;28;20449;-84
2023/02/03 09:27:18;;;;;;;0.30;0.30;;;5.40;99.90;;;;;;5074389;28;20515;-84
2023/02/03 09:29:44;;;;;;;0.30;0.30;;;5.60;99.90;;;;;;5074235;28;20461;-84
2023/02/03 09:32:12;;;;;;;0.30;0.30;;;5.70;99.90;;;;;;5074281;28;20469;-85
2023/02/03 09:34:40;;;;;;;0.30;0.20;;;5.70;99.90;;;;;;5074040;28;20454;-84
2023/02/03 09:37:06;;;;;;;0.30;0.30;;;5.80;99.90;;;;;;5074174;28;20476;-84
2023/02/03 09:39:33;;;;;;;0.30;0.30;;;5.70;99.90;;;;;;5074163;28;20441;-84
2023/02/03 09:42:27;;;;;;;0.30;0.30;;;5.80;99.90;;;;;;5073423;28;20452;-84
2023/02/03 09:45:05;;;;;;;1.73;0.33;;;5.80;99.90;;;;;;5074031;28;20435;-84
2023/02/03 09:47:35;;;;;;;0.30;0.30;;;5.90;99.90;;;;;;5073595;28;20476;-84
2023/02/03 09:50:04;;;;;;;0.30;0.30;;;6.00;99.90;;;;;;5073979;28;20441;-84
2023/02/03 09:52:33;;;;;;;0.33;0.27;;;6.00;99.90;;;;;;5074202;28;20482;-83
2023/02/03 09:55:03;;;;;;;0.30;0.20;;;6.10;99.90;;;;;;5073977;28;20449;-84
2023/02/03 09:57:40;;;;;;;0.30;0.30;;;6.20;99.90;;;;;;5074990;28;20457;-84
2023/02/03 10:00:19;;;;;;;0.30;0.20;;;6.30;99.90;;;;;;5074258;28;20445;-84
2023/02/03 10:02:56;;;;;;;0.40;0.30;;;6.30;99.90;;;;;;5073821;28;20843;-84
2023/02/03 10:05:30;;;;;;;0.40;0.30;;;6.30;99.90;;;;;;5073708;28;20437;-84
2023/02/03 10:08:03;;;;;;;0.40;0.40;;;6.20;99.90;;;;;;5073752;28;20438;-83
2023/02/03 10:10:39;;;;;;;0.73;0.40;;;6.20;99.90;;;;;;5073765;28;20426;-84
2023/02/03 10:13:27;;;;;;;0.40;0.30;;;6.30;99.90;;;;;;5073711;28;20444;-84
2023/02/03 10:16:15;;;;;;;0.63;0.63;;;6.20;99.90;;;;;;5073612;28;20472;-83
2023/02/03 10:18:46;;;;;;;0.30;0.20;;;6.20;99.90;;;;;;5073657;28;20438;-84
2023/02/03 10:21:16;;;;;;;0.30;0.30;;;6.20;99.90;;;;;;5073624;28;20797;-84
2023/02/03 10:23:45;;;;;;;0.70;0.33;;;6.20;99.90;;;;;;5073567;28;20528;-84
2023/02/03 10:26:17;;;;;;;0.30;0.20;;;6.30;99.90;;;;;;5073511;28;20476;-84
2023/02/03 10:28:51;;;;;;;0.30;0.27;;;6.30;99.90;;;;;;5073118;28;20796;-84
2023/02/03 10:31:20;;;;;;;0.30;0.30;;;6.30;99.90;;;;;;5073506;28;20480;-82
2023/02/03 10:33:48;;;;;;;0.40;0.30;;;6.30;99.90;;;;;;5073513;28;20449;-83
2023/02/03 10:36:19;;;;;;;0.30;0.30;;;6.30;99.90;;;;;;5072954;28;20492;-84
2023/02/03 10:38:56;;;;;;;0.30;0.30;;;6.20;99.90;;;;;;5073433;28;20430;-84
2023/02/03 10:41:24;;;;;;;0.30;0.30;;;6.30;99.90;;;;;;5073371;28;20528;-84
2023/02/03 10:43:54;;;;;;;0.50;0.30;;;6.30;99.90;;;;;;5073259;28;20819;-84
2023/02/03 10:46:26;;;;;;;0.50;0.50;;;6.30;99.90;;;;;;5073640;28;20482;-84
2023/02/03 10:48:52;;;;;;;0.40;0.37;;;6.40;99.90;;;;;;5073304;28;20433;-83
2023/02/03 10:51:22;;;;;;;0.30;0.30;;;6.40;99.90;;;;;;5073142;28;20485;-84
2023/02/03 10:53:52;;;;;;;0.30;0.20;;;6.50;99.90;;;;;;5077421;28;20446;-84
2023/02/03 10:56:21;;;;;;;0.30;0.30;;;6.50;99.90;;;;;;5077282;28;20473;-84
2023/02/03 10:58:50;;;;;;;0.30;0.30;;;6.50;99.90;;;;;;5076979;28;20904;-84
2023/02/03 11:01:21;;;;;;;0.30;0.20;;;6.40;99.90;;;;;;5077177;28;20536;-83
2023/02/03 11:04:00;;;;;;;0.30;0.20;;;6.40;99.90;;;;;;5077229;28;20440;-84
2023/02/03 11:06:27;;;;;;;0.30;0.20;;;6.40;99.90;;;;;;5077064;28;20469;-83
2023/02/03 11:08:54;;;;;;;0.30;0.30;;;6.60;99.90;;;;;;5076772;28;20460;-84
2023/02/03 11:11:24;;;;;;;0.30;0.27;;;6.60;99.90;;;;;;5077076;28;20484;-84
2023/02/03 11:13:56;;;;;;;0.30;0.20;;;6.70;99.90;;;;;;5076975;28;20449;-84
2023/02/03 11:16:24;;;;;;;0.30;0.20;;;6.80;99.90;;;;;;5076850;28;20469;-84
2023/02/03 11:18:59;;;;;;;0.30;0.30;;;6.90;99.90;;;;;;5076899;28;20446;-84
2023/02/03 11:21:30;;;;;;;0.73;0.73;;;7.00;99.90;;;;;;5076613;28;20420;-84
2023/02/03 11:24:02;;;;;;;0.30;0.30;;;7.00;99.90;;;;;;5076641;28;20417;-84
2023/02/03 11:26:33;;;;;;;0.30;0.30;;;7.10;99.90;;;;;;5076703;28;20527;-84
2023/02/03 11:29:03;;;;;;;0.30;0.20;;;7.10;99.90;;;;;;5076543;28;20913;-84
2023/02/03 11:31:33;;;;;;;0.30;0.20;;;7.00;99.90;;;;;;5076753;28;20473;-84
2023/02/03 11:34:03;;;;;;;0.30;0.23;;;7.10;99.90;;;;;;5077029;28;20468;-84
2023/02/03 11:36:31;;;;;;;0.30;0.20;;;7.10;99.90;;;;;;5078714;28;20804;-84
2023/02/03 11:39:23;;;;;;;0.30;0.20;;;7.10;99.90;;;;;;5076714;28;20445;-82
2023/02/03 11:41:50;;;;;;;0.50;0.30;;;7.10;99.90;;;;;;5076847;28;20406;-83
2023/02/03 11:44:20;;;;;;;0.30;0.20;;;7.10;99.90;;;;;;5076679;28;20453;-84
2023/02/03 11:46:51;;;;;;;0.40;0.30;;;7.10;99.90;;;;;;5076883;28;20472;-84
2023/02/03 11:49:46;;;;;;;0.30;0.20;;;7.10;99.90;;;;;;5076378;28;20970;-83
2023/02/03 11:52:33;;;;;;;0.30;0.30;;;7.20;99.90;;;;;;5075960;28;20976;-83
2023/02/03 11:55:12;;;;;;;0.30;0.20;;;7.10;99.90;;;;;;5075980;28;20797;-84
2023/02/03 11:57:46;;;;;;;0.30;0.23;;;7.10;99.90;;;;;;5075989;28;20406;-83
2023/02/03 12:00:25;;;;;;;0.30;0.20;;;7.10;99.90;;;;;;5075875;28;20770;-84
2023/02/03 12:03:14;;;;;;;0.40;0.30;;;7.10;99.90;;;;;;5076115;28;20434;-84
2023/02/03 12:06:01;;;;;;;0.40;0.30;;;7.10;99.90;;;;;;5075566;28;20969;-83
2023/02/03 12:08:50;;;;;;;0.30;0.20;;;7.10;99.90;;;;;;5075987;28;20453;-84
2023/02/03 12:11:29;;;;;;;0.30;0.20;;;7.00;99.90;;;;;;5073423;28;20456;-84
2023/02/03 12:14:08;;;;;;;0.40;0.30;;;7.10;99.90;;;;;;5075877;28;20441;-84
2023/02/03 12:17:11;;;;;;;0.30;0.20;;;7.20;99.90;;;;;;5076641;28;20812;-83
2023/02/03 12:19:52;;;;;;;0.30;0.20;;;7.30;99.90;;;;;;5075482;28;20932;-83
2023/02/03 12:22:29;;;;;;;0.40;0.30;;;7.40;99.90;;;;;;5075788;28;20437;-84
2023/02/03 12:25:03;;;;;;;0.30;0.30;;;7.30;99.90;;;;;;5075743;28;20429;-84
2023/02/03 12:27:41;;;;;;;0.30;0.30;;;7.40;99.90;;;;;;5075632;28;20508;-84
2023/02/03 12:30:15;;;;;;;0.30;0.20;;;7.40;99.90;;;;;;5075627;28;20434;-84
2023/02/03 12:32:49;;;;;;;0.30;0.30;;;7.50;99.90;;;;;;5075602;28;20500;-84
2023/02/03 12:35:21;;;;;;;0.30;0.30;;;7.50;99.90;;;;;;5075152;28;20481;-84
2023/02/03 12:37:52;;;;;;;0.30;0.20;;;7.50;99.90;;;;;;5075222;28;20940;-84
2023/02/03 12:40:25;;;;;;;0.30;0.30;;;7.40;99.90;;;;;;5075434;28;20429;-84
2023/02/03 12:42:55;;;;;;;0.30;0.20;;;7.40;99.90;;;;;;5075299;28;20418;-84
2023/02/03 12:45:26;;;;;;;0.30;0.30;;;7.40;99.90;;;;;;5074957;28;20430;-84
2023/02/03 12:47:56;;;;;;;0.30;0.30;;;7.30;99.90;;;;;;5075328;28;20458;-84
2023/02/03 12:50:31;;;;;;;0.40;0.30;;;7.20;99.90;;;;;;5075250;28;20449;-84
2023/02/03 12:53:04;;;;;;;0.30;0.20;;;7.20;99.90;;;;;;5075680;28;20804;-84
2023/02/03 12:55:35;;;;;;;0.30;0.30;;;7.10;99.90;;;;;;5074743;28;21004;-83
2023/02/03 12:58:06;;;;;;;0.30;0.20;;;7.00;99.90;;;;;;5075085;28;20437;-84
2023/02/03 13:00:41;;;;;;;0.87;0.50;;;7.00;99.90;;;;;;5075109;28;20928;-84
2023/02/03 13:03:17;;;;;;;0.40;0.30;;;7.00;99.90;;;;;;5074992;28;20523;-85
2023/02/03 13:05:52;;;;;;;0.50;0.30;;;7.00;99.90;;;;;;5074599;28;20464;-84
2023/02/03 13:08:28;;;;;;;0.30;0.30;;;6.90;99.90;;;;;;5074902;28;20779;-85
2023/02/03 13:10:59;;;;;;;0.30;0.30;;;7.00;99.90;;;;;;5074839;28;20436;-85
2023/02/03 13:13:34;;;;;;;0.40;0.40;;;7.00;99.90;;;;;;5075097;28;20832;-85
2023/02/03 13:16:05;;;;;;;0.30;0.30;;;7.00;99.90;;;;;;5073628;28;20837;-85